Time;durP1;ratioP1;P1;durP2;ratioP2;P2;SDS_P1;SDS_P2;PMS_P1;PMS_P2;Temp;Humidity;BMP_temperature;BMP_pressure;BME280_temperature;BME280_humidity;BME280_pressure;Samples;Min_cycle;Max_cycle;Signal;HPM_P1;HPM_P2
2023/01/19 00:00:16;;;;;;;29.33;20.05;;;;;;;-0.62;100.00;99470.16;5016165;28;20176;-45
2023/01/19 00:02:44;;;;;;;28.00;20.48;;;;;;;-0.60;100.00;99463.09;5020829;28;20384;-46
2023/01/19 00:05:10;;;;;;;27.35;20.15;;;;;;;-0.55;100.00;99484.09;5015395;28;20172;-48
2023/01/19 00:07:35;;;;;;;28.77;20.63;;;;;;;-0.53;100.00;99474.41;5024496;28;20186;-46
2023/01/19 00:10:01;;;;;;;30.02;20.27;;;;;;;-0.47;100.00;99462.03;5018964;28;20202;-46
2023/01/19 00:12:26;;;;;;;24.88;21.33;;;;;;;-0.46;100.00;99463.78;5011257;28;20198;-45
2023/01/19 00:14:52;;;;;;;25.65;19.92;;;;;;;-0.43;100.00;99471.63;5017902;28;20195;-46
2023/01/19 00:17:17;;;;;;;23.75;19.98;;;;;;;-0.46;100.00;99466.41;5017153;28;20689;-48
2023/01/19 00:19:43;;;;;;;26.00;20.20;;;;;;;-0.46;100.00;99463.78;5013052;28;20188;-45
2023/01/19 00:22:08;;;;;;;30.83;20.10;;;;;;;-0.38;100.00;99471.53;5022325;28;20191;-45
2023/01/19 00:24:34;;;;;;;27.45;20.48;;;;;;;-0.38;100.00;99475.94;5019241;28;20639;-48
2023/01/19 00:27:02;;;;;;;29.33;21.60;;;;;;;-0.38;100.00;99475.94;5018576;28;20222;-45
2023/01/19 00:29:32;;;;;;;33.70;21.80;;;;;;;-0.38;100.00;99470.69;5020840;28;20184;-47
2023/01/19 00:32:03;;;;;;;26.98;20.80;;;;;;;-0.38;100.00;99460.16;5019530;28;20639;-46
2023/01/19 00:34:35;;;;;;;28.67;21.33;;;;;;;-0.38;100.00;99463.66;5021103;28;20216;-46
2023/01/19 00:37:05;;;;;;;28.40;21.60;;;;;;;-0.33;100.00;99472.34;5021535;28;20200;-47
2023/01/19 00:39:31;;;;;;;26.90;20.60;;;;;;;-0.29;100.00;99475.78;5024140;28;20212;-47
2023/01/19 00:44:40;;;;;;;27.30;21.20;;;;;;;-0.17;100.00;99465.06;5022690;28;20175;-46
2023/01/19 00:47:06;;;;;;;25.60;20.45;;;;;;;-0.22;100.00;99469.53;5019739;28;20201;-44
2023/01/19 00:49:31;;;;;;;28.38;21.70;;;;;;;-0.21;100.00;99453.72;5023573;28;20171;-46
2023/01/19 00:51:57;;;;;;;29.20;20.92;;;;;;;-0.17;100.00;99465.06;5022830;28;20261;-48
2023/01/19 00:54:22;;;;;;;27.60;21.73;;;;;;;-0.14;100.00;99469.41;5024248;28;20192;-48
2023/01/19 00:56:48;;;;;;;25.08;20.50;;;;;;;-0.14;100.00;99461.50;5022517;28;20282;-43
2023/01/19 00:59:13;;;;;;;25.90;19.90;;;;;;;-0.11;100.00;99459.72;5015933;28;20262;-44
2023/01/19 01:01:39;;;;;;;27.35;21.50;;;;;;;-0.10;100.00;99458.81;5019406;28;20192;-45
2023/01/19 01:04:04;;;;;;;25.80;21.35;;;;;;;-0.11;100.00;99456.19;5019913;28;20176;-49
2023/01/19 01:06:30;;;;;;;28.15;20.70;;;;;;;-0.07;100.00;99461.38;5021779;28;20548;-46
2023/01/19 01:08:55;;;;;;;26.23;20.50;;;;;;;-0.04;100.00;99456.06;5021828;28;20180;-45
2023/01/19 01:11:21;;;;;;;25.63;19.83;;;;;;;0.01;100.00;99449.84;5023485;28;20177;-49
2023/01/19 01:13:46;;;;;;;26.08;20.27;;;;;;;0.02;100.00;99444.53;5024643;28;20203;-44
2023/01/19 01:16:15;;;;;;;27.10;19.67;;;;;;;0.02;100.00;99454.22;5023129;28;20201;-43
2023/01/19 01:18:41;;;;;;;24.83;20.10;;;;;;;0.06;100.00;99451.50;5020193;28;20535;-45
2023/01/19 01:21:07;;;;;;;26.27;19.85;;;;;;;0.06;100.00;99455.91;5020158;28;20188;-44
2023/01/19 01:23:33;;;;;;;25.10;18.48;;;;;;;0.06;100.00;99448.88;5021828;28;20517;-45
2023/01/19 01:25:59;;;;;;;25.60;18.92;;;;;;;0.08;100.00;99454.13;5041319;28;20254;-47
2023/01/19 01:28:24;;;;;;;23.13;19.63;;;;;;;0.10;100.00;99455.81;5022541;28;20643;-46
2023/01/19 01:30:54;;;;;;;27.23;20.13;;;;;;;0.12;100.00;99454.03;5025534;28;20267;-46
2023/01/19 01:33:20;;;;;;;26.52;20.02;;;;;;;0.06;100.00;99458.53;5024610;28;20281;-46
2023/01/19 01:35:47;;;;;;;27.33;19.60;;;;;;;0.06;100.00;99461.16;5025382;28;20287;-49
2023/01/19 01:38:14;;;;;;;26.08;19.95;;;;;;;0.06;100.00;99453.28;5017514;28;20207;-42
2023/01/19 01:40:40;;;;;;;23.92;19.33;;;;;;;0.03;100.00;99462.09;5023470;28;20320;-42
2023/01/19 01:43:13;;;;;;;25.83;19.65;;;;;;;0.02;100.00;99468.25;5021391;28;20230;-41
2023/01/19 01:45:40;;;;;;;26.35;19.90;;;;;;;-0.01;100.00;99456.00;5025140;28;20267;-46
2023/01/19 01:48:14;;;;;;;26.95;19.92;;;;;;;0.02;100.00;99448.94;5015856;28;20192;-42
2023/01/19 01:53:50;;;;;;;24.60;19.23;;;;;;;0.06;100.00;99451.50;5014324;28;20686;-48
2023/01/19 01:56:22;;;;;;;25.25;18.70;;;;;;;0.06;100.00;99446.22;5018141;28;20691;-43
2023/01/19 01:58:48;;;;;;;24.45;18.63;;;;;;;0.06;100.00;99440.09;5030838;28;20189;-43
2023/01/19 02:03:58;;;;;;;31.25;18.63;;;;;;;0.13;100.00;99441.72;5021087;28;20686;-42
2023/01/19 02:06:25;;;;;;;25.25;18.25;;;;;;;0.13;100.00;99436.47;5023247;28;20225;-43
2023/01/19 02:14:36;;;;;;;26.45;18.20;;;;;;;0.21;100.00;99434.56;5022220;28;20311;-49
2023/01/19 02:17:02;;;;;;;25.65;17.58;;;;;;;0.25;100.00;99441.50;5019222;28;20296;-49
2023/01/19 02:19:40;;;;;;;25.10;16.83;;;;;;;0.30;100.00;99437.00;5022009;28;20184;-48
2023/01/19 02:22:14;;;;;;;22.40;16.83;;;;;;;0.32;100.00;99437.84;5016075;28;20195;-49
2023/01/19 02:24:40;;;;;;;19.45;16.77;;;;;;;0.36;100.00;99442.16;5023148;28;20176;-49
2023/01/19 02:27:07;;;;;;;20.80;16.05;;;;;;;0.41;100.00;99450.84;5018688;28;20557;-46
2023/01/19 02:29:33;;;;;;;24.73;17.15;;;;;;;0.50;100.00;99441.88;5019259;28;20714;-46
2023/01/19 02:32:01;;;;;;;24.55;16.15;;;;;;;0.49;100.00;99440.16;5015758;28;20188;-45
2023/01/19 02:34:27;;;;;;;19.40;16.20;;;;;;;0.57;100.00;99440.91;5024747;28;20518;-48
2023/01/19 02:37:00;;;;;;;19.90;16.42;;;;;;;0.55;100.00;99439.19;5019434;28;20199;-43
2023/01/19 02:39:38;;;;;;;24.30;17.15;;;;;;;0.58;100.00;99416.25;5025260;28;20268;-42
2023/01/19 02:42:09;;;;;;;19.63;16.77;;;;;;;0.56;100.00;99427.75;5025444;28;20707;-42
2023/01/19 02:44:38;;;;;;;20.50;16.80;;;;;;;0.58;100.00;99420.66;5026573;28;20231;-42
2023/01/19 02:47:04;;;;;;;22.13;16.92;;;;;;;0.62;100.00;99414.44;5017656;28;20694;-44
2023/01/19 02:49:30;;;;;;;20.75;15.93;;;;;;;0.61;100.00;99426.75;5020534;28;20180;-44
2023/01/19 02:51:56;;;;;;;23.42;16.63;;;;;;;0.67;100.00;99416.97;5020416;28;20234;-44
2023/01/19 02:54:40;;;;;;;19.63;16.08;;;;;;;0.66;100.00;99431.06;5024752;28;20214;-43
2023/01/19 02:57:11;;;;;;;20.35;16.63;;;;;;;0.65;100.00;99432.81;5021304;28;20219;-43
2023/01/19 03:00:20;;;;;;;21.00;16.73;;;;;;;0.68;100.00;99432.78;5022881;28;20178;-43
2023/01/19 03:02:49;;;;;;;23.13;16.90;;;;;;;0.68;100.00;99435.41;4982339;28;20185;-42
2023/01/19 03:05:39;;;;;;;21.25;16.73;;;;;;;0.70;100.00;99417.78;5013310;28;20280;-42
2023/01/19 03:08:04;;;;;;;22.63;16.10;;;;;;;0.68;100.00;99416.97;5018569;28;20572;-43
2023/01/19 03:10:39;;;;;;;23.67;18.38;;;;;;;0.68;100.00;99419.59;5025612;28;20198;-42
2023/01/19 03:13:42;;;;;;;23.25;16.92;;;;;;;0.68;100.00;99419.59;5021963;28;20219;-44
2023/01/19 03:16:19;;;;;;;21.33;16.35;;;;;;;0.70;100.00;99409.88;5021719;28;20232;-42
2023/01/19 03:18:52;;;;;;;24.23;17.23;;;;;;;0.74;100.00;99403.63;5025784;28;20515;-42
2023/01/19 03:21:20;;;;;;;20.70;16.23;;;;;;;0.73;100.00;99416.84;5017666;28;20561;-43
2023/01/19 03:23:48;;;;;;;20.20;17.17;;;;;;;0.72;100.00;99418.63;5018340;28;20203;-43
2023/01/19 03:26:18;;;;;;;24.15;17.05;;;;;;;0.78;100.00;99410.56;5021119;28;20201;-41
2023/01/19 03:28:45;;;;;;;21.05;16.48;;;;;;;0.84;100.00;99404.31;5018201;28;20176;-44
2023/01/19 03:31:23;;;;;;;19.73;16.23;;;;;;;0.79;100.00;99419.38;5023935;28;20192;-42
2023/01/19 03:33:59;;;;;;;18.83;16.42;;;;;;;0.79;100.00;99401.78;5018328;28;20200;-41
2023/01/19 03:36:31;;;;;;;22.63;17.40;;;;;;;0.80;100.00;99402.63;5019269;28;20212;-43
2023/01/19 03:38:58;;;;;;;22.45;15.90;;;;;;;0.78;100.00;99401.81;5017847;28;20658;-42
2023/01/19 03:41:26;;;;;;;19.90;15.85;;;;;;;0.75;100.00;99404.50;5014408;28;20188;-44
2023/01/19 03:43:55;;;;;;;20.17;15.73;;;;;;;0.77;100.00;99400.09;5017257;28;20168;-44
2023/01/19 03:46:23;;;;;;;27.05;17.02;;;;;;;0.75;100.00;99408.00;5019783;28;20617;-44
2023/01/19 03:48:49;;;;;;;20.55;16.17;;;;;;;0.73;100.00;99415.09;5024370;28;20201;-43
2023/01/19 03:51:16;;;;;;;21.20;16.35;;;;;;;0.81;100.00;99399.97;5021928;28;20196;-41
2023/01/19 03:53:42;;;;;;;21.83;16.63;;;;;;;0.84;100.00;99400.81;5020936;28;20573;-43
2023/01/19 03:56:22;;;;;;;21.05;16.48;;;;;;;0.87;100.00;99406.00;5016266;28;20204;-42
2023/01/19 03:58:48;;;;;;;19.02;15.88;;;;;;;0.81;100.00;99394.72;5015779;28;20182;-43
2023/01/19 04:01:15;;;;;;;19.60;16.30;;;;;;;0.81;100.00;99399.97;5018954;28;20643;-43
2023/01/19 04:03:41;;;;;;;23.02;15.30;;;;;;;0.82;100.00;99388.50;5018745;28;20172;-43
2023/01/19 04:06:08;;;;;;;22.83;15.95;;;;;;;0.84;100.00;99395.53;5014020;28;20212;-43
2023/01/19 04:08:34;;;;;;;19.52;16.08;;;;;;;0.83;100.00;99397.28;5018912;28;20192;-41
2023/01/19 04:10:59;;;;;;;18.88;16.38;;;;;;;0.85;100.00;99403.41;5023656;28;20176;-40
2023/01/19 04:13:27;;;;;;;19.83;15.55;;;;;;;0.84;100.00;99374.44;5028534;28;21178;-41
2023/01/19 04:15:53;;;;;;;22.45;16.52;;;;;;;0.83;100.00;99394.66;5018470;28;20199;-42
2023/01/19 04:18:18;;;;;;;20.30;16.33;;;;;;;0.82;100.00;99374.47;5017528;28;20190;-41
2023/01/19 04:20:44;;;;;;;19.65;16.17;;;;;;;0.84;100.00;99387.63;5021965;28;20192;-40
2023/01/19 04:23:09;;;;;;;17.33;15.10;;;;;;;0.85;100.00;99378.81;5020421;28;20180;-42
2023/01/19 04:25:35;;;;;;;23.63;16.40;;;;;;;0.89;100.00;99393.66;5031703;28;20204;-44
2023/01/19 04:28:00;;;;;;;24.05;16.95;;;;;;;0.88;100.00;99397.22;5019513;28;20275;-41
2023/01/19 04:30:26;;;;;;;23.20;15.45;;;;;;;0.91;100.00;99405.91;5013728;28;20617;-43
2023/01/19 04:32:54;;;;;;;21.05;15.68;;;;;;;0.92;100.00;99404.13;5019734;28;20741;-43
2023/01/19 04:35:21;;;;;;;18.98;15.48;;;;;;;0.89;100.00;99405.06;5023014;28;20207;-43
2023/01/19 04:37:47;;;;;;;19.20;16.13;;;;;;;0.91;100.00;99405.03;5019955;28;20275;-43
2023/01/19 04:40:12;;;;;;;21.25;15.70;;;;;;;0.91;100.00;99403.28;5015066;28;20176;-44
2023/01/19 04:42:42;;;;;;;22.38;17.08;;;;;;;0.95;100.00;99409.34;5026056;28;20644;-44
2023/01/19 04:45:08;;;;;;;21.73;16.63;;;;;;;0.91;100.00;99413.81;5026661;28;20653;-47
2023/01/19 04:47:33;;;;;;;20.25;16.63;;;;;;;0.95;100.00;99397.03;5020820;28;20180;-46
2023/01/19 04:49:59;;;;;;;21.35;16.55;;;;;;;0.95;100.00;99410.22;5015069;28;20180;-47
2023/01/19 04:52:24;;;;;;;19.33;15.85;;;;;;;0.99;100.00;99401.34;5020359;28;20199;-44
2023/01/19 04:54:50;;;;;;;19.02;16.88;;;;;;;0.95;100.00;99399.66;5016745;28;20200;-48
2023/01/19 04:57:15;;;;;;;19.77;16.65;;;;;;;0.95;100.00;99404.94;5011727;28;20740;-43
2023/01/19 04:59:41;;;;;;;20.77;17.02;;;;;;;0.97;100.00;99405.78;5018951;28;20188;-42
2023/01/19 05:02:06;;;;;;;19.50;16.13;;;;;;;1.00;100.00;99396.94;5016793;28;20735;-45
2023/01/19 05:04:32;;;;;;;20.90;16.30;;;;;;;0.98;100.00;99396.97;5023925;28;20416;-49
2023/01/19 05:06:58;;;;;;;22.13;16.48;;;;;;;0.96;100.00;99393.50;5018381;28;20306;-49
2023/01/19 05:09:24;;;;;;;21.90;16.40;;;;;;;0.98;100.00;99393.44;5018425;28;20176;-45
2023/01/19 05:11:50;;;;;;;20.55;16.38;;;;;;;0.96;100.00;99387.34;5017384;28;20196;-48
2023/01/19 05:14:15;;;;;;;19.23;15.43;;;;;;;0.95;100.00;99393.53;5018896;28;20204;-45
2023/01/19 05:16:41;;;;;;;20.27;16.48;;;;;;;0.95;100.00;99390.91;5016468;28;20196;-49
2023/01/19 05:19:06;;;;;;;20.08;16.77;;;;;;;1.00;100.00;99402.19;5017449;28;20196;-47
2023/01/19 05:21:32;;;;;;;19.88;15.98;;;;;;;0.99;100.00;99390.78;5014000;28;20707;-45
2023/01/19 05:23:58;;;;;;;19.58;16.90;;;;;;;0.99;100.00;99401.34;5020126;28;20165;-45
2023/01/19 05:26:23;;;;;;;20.75;16.80;;;;;;;1.01;100.00;99402.19;5018621;28;20295;-44
2023/01/19 05:28:49;;;;;;;21.65;16.67;;;;;;;1.01;100.00;99412.72;5018597;28;20175;-49
2023/01/19 05:31:14;;;;;;;20.55;16.33;;;;;;;1.05;100.00;99407.38;5017699;28;20191;-45
2023/01/19 05:33:40;;;;;;;19.77;16.42;;;;;;;1.02;100.00;99403.03;5023613;28;20197;-47
2023/01/19 05:36:06;;;;;;;18.67;16.52;;;;;;;1.04;100.00;99390.69;5019343;28;20196;-47
2023/01/19 05:38:31;;;;;;;22.33;16.48;;;;;;;1.05;100.00;99407.38;5021892;28;20267;-46
2023/01/19 05:40:57;;;;;;;18.70;15.75;;;;;;;1.09;100.00;99406.41;5023042;28;20295;-44
2023/01/19 05:43:26;;;;;;;24.95;16.42;;;;;;;1.08;100.00;99402.03;5022280;28;20176;-43
2023/01/19 05:45:52;;;;;;;17.55;15.73;;;;;;;1.08;100.00;99413.44;5024165;28;20200;-42
2023/01/19 05:48:17;;;;;;;20.02;16.83;;;;;;;1.09;100.00;99404.63;5021593;28;20192;-47
2023/01/19 05:50:42;;;;;;;18.90;16.83;;;;;;;1.08;100.00;99399.41;5021913;28;20176;-47
2023/01/19 05:53:08;;;;;;;20.55;16.75;;;;;;;1.09;100.00;99398.50;5021176;28;20671;-45
2023/01/19 05:55:34;;;;;;;21.55;17.85;;;;;;;1.04;100.00;99401.22;5021822;28;20232;-46
2023/01/19 05:58:00;;;;;;;19.75;17.13;;;;;;;1.02;100.00;99409.16;5020801;28;20173;-46
2023/01/19 06:00:26;;;;;;;21.75;18.30;;;;;;;0.98;100.00;99407.53;5018841;28;20677;-44
2023/01/19 06:02:52;;;;;;;22.02;18.02;;;;;;;0.90;100.00;99398.06;5022138;28;20216;-47
2023/01/19 06:05:18;;;;;;;21.05;18.58;;;;;;;0.94;100.00;99402.31;5022301;28;20186;-48
2023/01/19 06:07:43;;;;;;;23.15;19.15;;;;;;;0.82;100.00;99401.69;5015611;28;20184;-47
2023/01/19 06:10:09;;;;;;;22.27;19.73;;;;;;;0.68;100.00;99409.06;5020265;28;20193;-43
2023/01/19 06:12:36;;;;;;;23.23;19.77;;;;;;;0.58;100.00;99418.91;5022776;28;20663;-46
2023/01/19 06:15:01;;;;;;;26.05;20.63;;;;;;;0.54;100.00;99417.22;5028761;28;20271;-49
2023/01/19 06:17:27;;;;;;;29.10;22.35;;;;;;;0.52;100.00;99408.47;5021463;28;20266;-46
2023/01/19 06:19:52;;;;;;;25.63;22.83;;;;;;;0.53;100.00;99409.38;5019498;28;20226;-46
2023/01/19 06:22:18;;;;;;;27.08;21.63;;;;;;;0.57;100.00;99416.31;5021100;28;20196;-48
2023/01/19 06:24:43;;;;;;;27.08;23.35;;;;;;;0.61;100.00;99420.59;5017443;28;20180;-46
2023/01/19 06:27:10;;;;;;;30.00;24.23;;;;;;;0.60;100.00;99414.47;5023069;28;20273;-47
2023/01/19 06:29:35;;;;;;;30.80;24.05;;;;;;;0.64;100.00;99428.47;5019351;28;20567;-46
2023/01/19 06:32:01;;;;;;;28.95;23.52;;;;;;;0.73;100.00;99425.63;5012971;28;20181;-46
2023/01/19 06:34:27;;;;;;;31.00;24.45;;;;;;;0.72;100.00;99426.53;5023378;28;20207;-49
2023/01/19 06:36:57;;;;;;;29.35;24.13;;;;;;;0.73;100.00;99433.53;5021756;28;20756;-48
2023/01/19 06:39:23;;;;;;;32.30;25.17;;;;;;;0.74;100.00;99432.63;5018272;28;20216;-46
2023/01/19 06:41:48;;;;;;;33.10;26.08;;;;;;;0.77;100.00;99422.03;5020047;28;20220;-47
2023/01/19 06:44:14;;;;;;;32.72;25.65;;;;;;;0.78;100.00;99449.25;5020573;28;20204;-48
2023/01/19 06:46:39;;;;;;;32.08;24.38;;;;;;;0.82;100.00;99443.03;5024150;28;20204;-45
2023/01/19 06:49:05;;;;;;;31.63;26.58;;;;;;;0.85;100.00;99450.84;5022929;28;20184;-48
2023/01/19 06:51:30;;;;;;;31.70;25.83;;;;;;;0.86;100.00;99463.16;5023975;28;20176;-46
2023/01/19 06:53:56;;;;;;;33.70;27.63;;;;;;;0.85;100.00;99452.63;5020441;28;20203;-46
2023/01/19 06:56:22;;;;;;;29.85;26.42;;;;;;;0.82;100.00;99467.63;5019282;28;20319;-48
2023/01/19 06:58:49;;;;;;;30.38;25.13;;;;;;;0.84;100.00;99469.38;5022628;28;20208;-47
2023/01/19 07:01:15;;;;;;;30.80;25.92;;;;;;;0.84;100.00;99466.72;5017419;28;20219;-47
2023/01/19 07:03:40;;;;;;;28.52;24.05;;;;;;;0.89;100.00;99481.53;5016347;28;20290;-48
2023/01/19 07:06:06;;;;;;;28.67;24.50;;;;;;;0.87;100.00;99477.19;5017173;28;20204;-46
2023/01/19 07:08:33;;;;;;;30.67;25.95;;;;;;;0.89;100.00;99484.16;5019786;28;20182;-47
2023/01/19 07:11:06;;;;;;;31.10;23.23;;;;;;;0.88;100.00;99500.03;5016272;28;20178;-48
2023/01/19 07:13:33;;;;;;;25.98;23.20;;;;;;;0.86;100.00;99500.06;5020941;28;20214;-48
2023/01/19 07:16:12;;;;;;;26.48;22.85;;;;;;;0.89;100.00;99504.41;5019160;28;20219;-47
2023/01/19 07:18:39;;;;;;;25.67;22.88;;;;;;;0.87;100.00;99516.75;5016886;28;20177;-45
2023/01/19 07:21:05;;;;;;;27.33;24.00;;;;;;;0.84;100.00;99511.53;5018650;28;20217;-46
2023/01/19 07:23:31;;;;;;;28.73;23.10;;;;;;;0.84;100.00;99508.91;5015000;28;20226;-46
2023/01/19 07:25:57;;;;;;;27.15;22.92;;;;;;;0.86;100.00;99517.66;5020352;28;20200;-47
2023/01/19 07:28:23;;;;;;;25.92;22.05;;;;;;;0.81;100.00;99523.88;5022752;28;20199;-46
2023/01/19 07:30:53;;;;;;;25.23;22.08;;;;;;;0.81;100.00;99530.94;5018384;28;20806;-46
2023/01/19 07:33:21;;;;;;;25.60;22.90;;;;;;;0.80;100.00;99540.59;5018464;28;20531;-48
2023/01/19 07:35:50;;;;;;;25.63;21.30;;;;;;;0.87;100.00;99535.19;5021324;28;20395;-49
2023/01/19 07:38:17;;;;;;;23.80;21.17;;;;;;;0.86;100.00;99544.88;5018659;28;20243;-48
2023/01/19 07:40:45;;;;;;;27.38;20.77;;;;;;;0.90;100.00;99545.72;5019210;28;20193;-46
2023/01/19 07:43:11;;;;;;;23.95;21.23;;;;;;;0.89;100.00;99547.44;5016276;28;20180;-50
2023/01/19 07:45:38;;;;;;;24.48;20.52;;;;;;;0.85;100.00;99550.19;5023164;28;20710;-48
2023/01/19 07:48:03;;;;;;;22.38;19.98;;;;;;;0.82;100.00;99559.88;5019570;28;20207;-48
2023/01/19 07:50:29;;;;;;;25.10;20.35;;;;;;;0.84;100.00;99575.69;5014376;28;20685;-46
2023/01/19 07:52:55;;;;;;;22.48;19.75;;;;;;;0.87;100.00;99566.84;5024860;28;20559;-46
2023/01/19 07:55:22;;;;;;;21.42;18.88;;;;;;;0.83;100.00;99573.94;5018511;28;20211;-48
2023/01/19 07:57:51;;;;;;;23.65;18.67;;;;;;;0.81;100.00;99563.44;5027188;28;20179;-48
2023/01/19 08:00:20;;;;;;;24.02;18.60;;;;;;;0.81;100.00;99579.25;5020807;28;20279;-47
2023/01/19 08:02:48;;;;;;;19.92;17.83;;;;;;;0.86;100.00;99583.56;5011312;28;20176;-47
2023/01/19 08:05:18;;;;;;;21.83;18.48;;;;;;;0.86;100.00;99591.50;5019559;28;20966;-46
2023/01/19 08:07:45;;;;;;;22.08;18.42;;;;;;;0.78;100.00;99588.97;5017975;28;20541;-47
2023/01/19 08:10:13;;;;;;;22.23;17.75;;;;;;;0.80;100.00;99588.03;5014071;28;20181;-47
2023/01/19 08:12:40;;;;;;;20.73;18.48;;;;;;;0.78;100.00;99591.63;5020094;28;20803;-47
2023/01/19 08:15:08;;;;;;;22.13;18.38;;;;;;;0.81;100.00;99597.72;5021067;28;20335;-47
2023/01/19 08:17:34;;;;;;;19.98;17.85;;;;;;;0.79;100.00;99598.63;5015480;28;20234;-48
2023/01/19 08:19:59;;;;;;;19.98;17.20;;;;;;;0.80;100.00;99603.88;5015836;28;20172;-47
2023/01/19 08:22:25;;;;;;;19.80;17.70;;;;;;;0.80;100.00;99608.28;5018753;28;20215;-47
2023/01/19 08:24:50;;;;;;;20.92;17.48;;;;;;;0.80;100.00;99619.69;5025351;28;20602;-47
2023/01/19 08:27:16;;;;;;;19.08;16.00;;;;;;;0.84;100.00;99615.22;5020423;28;20200;-47
2023/01/19 08:29:42;;;;;;;17.50;15.60;;;;;;;0.81;100.00;99631.13;5016407;28;20268;-48
2023/01/19 08:32:07;;;;;;;16.90;15.20;;;;;;;0.73;100.00;99622.47;5020456;28;20184;-47
2023/01/19 08:34:33;;;;;;;18.23;16.40;;;;;;;0.75;100.00;99642.63;5018752;28;20200;-47
2023/01/19 08:36:58;;;;;;;16.38;14.63;;;;;;;0.82;100.00;99630.22;5013628;28;20303;-48
2023/01/19 08:39:24;;;;;;;18.63;16.63;;;;;;;0.70;100.00;99633.06;5014511;28;20189;-46
2023/01/19 08:41:51;;;;;;;20.08;17.92;;;;;;;0.70;100.00;99641.84;5017020;28;20276;-46
2023/01/19 08:44:16;;;;;;;24.65;18.20;;;;;;;0.69;100.00;99632.19;5015879;28;20615;-48
2023/01/19 08:46:42;;;;;;;20.95;18.60;;;;;;;0.73;100.00;99646.19;5025207;28;20257;-48
2023/01/19 08:49:08;;;;;;;23.45;19.23;;;;;;;0.76;100.00;99651.41;5021290;28;20858;-48
2023/01/19 08:51:33;;;;;;;22.73;20.13;;;;;;;0.71;100.00;99658.53;5024813;28;20183;-49
2023/01/19 08:53:59;;;;;;;24.40;20.92;;;;;;;0.71;100.00;99651.50;5021524;28;20216;-47
2023/01/19 08:56:25;;;;;;;22.08;19.70;;;;;;;0.74;100.00;99667.25;5013952;28;20212;-47
2023/01/19 08:58:50;;;;;;;25.38;21.42;;;;;;;0.75;100.00;99668.13;5015255;28;20176;-48
2023/01/19 09:01:17;;;;;;;23.95;20.55;;;;;;;0.75;100.00;99669.00;5016694;28;20275;-46
2023/01/19 09:03:43;;;;;;;22.45;19.80;;;;;;;0.84;100.00;99675.00;5025215;28;20176;-47
2023/01/19 09:06:10;;;;;;;21.67;19.27;;;;;;;0.90;100.00;99673.13;5026161;28;20234;-48
2023/01/19 09:08:36;;;;;;;23.25;20.75;;;;;;;0.87;100.00;99677.59;5019136;28;20172;-48
2023/01/19 09:11:01;;;;;;;21.50;18.92;;;;;;;0.96;100.00;99678.31;5026193;28;20202;-48
2023/01/19 09:13:27;;;;;;;22.10;19.65;;;;;;;0.99;100.00;99680.88;5018154;28;20591;-48
2023/01/19 09:15:53;;;;;;;23.65;21.13;;;;;;;1.00;100.00;99687.03;5019608;28;20297;-45
2023/01/19 09:18:21;;;;;;;22.48;19.33;;;;;;;1.00;100.00;99697.56;5022211;28;20177;-47
2023/01/19 09:20:48;;;;;;;20.98;18.77;;;;;;;0.99;100.00;99695.84;5020618;28;20180;-47
2023/01/19 09:23:16;;;;;;;21.48;18.70;;;;;;;0.98;100.00;99696.72;5019527;28;20263;-48
2023/01/19 09:25:44;;;;;;;20.83;17.48;;;;;;;1.02;100.00;99709.81;5025442;28;20231;-48
2023/01/19 09:28:11;;;;;;;19.25;16.58;;;;;;;1.04;100.00;99707.19;5022817;28;20743;-47
2023/01/19 09:30:39;;;;;;;18.25;16.30;;;;;;;1.12;100.00;99714.97;5014240;28;20251;-46
2023/01/19 09:33:06;;;;;;;16.88;15.07;;;;;;;1.12;100.00;99715.84;5026480;28;20697;-47
2023/01/19 09:35:35;;;;;;;18.40;16.02;;;;;;;1.17;100.00;99721.88;5021148;28;20573;-46
2023/01/19 09:38:01;;;;;;;17.08;15.23;;;;;;;1.21;100.00;99712.16;5020797;28;20275;-48
2023/01/19 09:40:27;;;;;;;19.55;16.63;;;;;;;1.20;100.00;99721.84;5022795;28;20291;-44
2023/01/19 09:42:58;;;;;;;17.73;15.75;;;;;;;1.26;100.00;99720.84;5015218;28;20227;-47
2023/01/19 09:45:44;;;;;;;15.98;14.13;;;;;;;1.34;100.00;99729.50;5018645;28;20200;-47
2023/01/19 09:48:46;;;;;;;16.42;14.65;;;;;;;1.43;100.00;99733.75;5022553;28;20191;-49
2023/01/19 09:51:17;;;;;;;18.55;15.55;;;;;;;1.47;100.00;99732.78;5031997;28;20184;-48
2023/01/19 09:53:50;;;;;;;18.52;16.25;;;;;;;1.50;100.00;99727.44;5023495;28;20203;-44
2023/01/19 09:56:19;;;;;;;17.10;14.68;;;;;;;1.54;100.00;99734.41;5020273;28;20219;-45
2023/01/19 09:58:46;;;;;;;18.90;15.50;;;;;;;1.53;100.00;99737.97;5028430;28;20176;-47
2023/01/19 10:01:33;;;;;;;19.00;15.88;;;;;;;1.61;100.00;99746.56;5018008;28;20172;-48
2023/01/19 10:04:29;;;;;;;18.08;15.60;;;;;;;1.92;100.00;99737.19;5022237;28;20687;-47
2023/01/19 10:07:05;;;;;;;16.83;15.10;;;;;;;1.88;100.00;99757.53;5019731;28;20715;-49
2023/01/19 10:09:39;;;;;;;19.33;16.70;;;;;;;1.70;100.00;99747.31;5027977;28;20184;-48
2023/01/19 10:12:33;;;;;;;18.63;16.05;;;;;;;1.78;100.00;99753.31;5017218;28;20180;-48
2023/01/19 10:15:13;;;;;;;18.65;16.08;;;;;;;1.70;100.00;99756.09;5030020;28;20573;-46
2023/01/19 10:17:53;;;;;;;18.13;15.38;;;;;;;1.71;100.00;99767.56;5018873;28;20182;-46
2023/01/19 10:20:27;;;;;;;17.63;15.55;;;;;;;1.90;100.00;99760.13;5023078;28;20195;-48
2023/01/19 10:22:56;;;;;;;18.77;16.13;;;;;;;1.93;100.00;99774.16;5019387;28;20287;-47
2023/01/19 10:25:25;;;;;;;19.67;16.25;;;;;;;1.88;100.00;99765.44;5014580;28;20303;-46
2023/01/19 10:27:50;;;;;;;16.40;14.57;;;;;;;1.96;100.00;99763.50;5021889;28;20176;-46
2023/01/19 10:30:26;;;;;;;18.25;16.15;;;;;;;1.96;100.00;99771.44;5013398;28;20267;-47
2023/01/19 10:32:52;;;;;;;18.73;16.63;;;;;;;1.91;100.00;99775.06;5018873;28;20640;-48
2023/01/19 10:35:23;;;;;;;18.45;16.40;;;;;;;1.92;100.00;99780.31;5019015;28;20239;-47
2023/01/19 10:37:55;;;;;;;19.75;17.42;;;;;;;1.96;100.00;99787.28;5018694;28;20176;-45
2023/01/19 10:40:35;;;;;;;18.70;16.50;;;;;;;1.94;100.00;99775.88;5024348;28;20528;-47
2023/01/19 10:43:01;;;;;;;17.55;15.35;;;;;;;1.98;100.00;99798.69;5018826;28;20650;-46
2023/01/19 10:45:29;;;;;;;17.92;16.00;;;;;;;2.01;100.00;99793.34;5026406;28;20203;-45
2023/01/19 10:48:03;;;;;;;18.27;16.38;;;;;;;1.93;100.00;99790.00;5021533;28;20169;-45
2023/01/19 10:50:35;;;;;;;18.98;15.70;;;;;;;1.91;100.00;99789.16;5020829;28;20183;-44
2023/01/19 10:53:04;;;;;;;20.60;16.33;;;;;;;1.94;100.00;99797.00;5018281;28;20180;-41
2023/01/19 10:55:37;;;;;;;21.30;16.45;;;;;;;1.89;100.00;99790.94;5019700;28;20212;-42
2023/01/19 10:58:05;;;;;;;18.13;16.27;;;;;;;1.88;100.00;99802.44;5026073;28;20181;-42
2023/01/19 11:00:30;;;;;;;17.67;15.25;;;;;;;1.97;100.00;99807.53;5025678;28;20656;-43
2023/01/19 11:02:56;;;;;;;17.30;15.15;;;;;;;1.95;100.00;99801.41;5016043;28;20263;-42
2023/01/19 11:05:27;;;;;;;17.63;14.73;;;;;;;2.00;100.00;99811.88;5024724;28;20217;-42
2023/01/19 11:07:53;;;;;;;15.88;14.02;;;;;;;1.97;100.00;99804.88;5013597;28;20260;-42
2023/01/19 11:10:24;;;;;;;16.23;14.30;;;;;;;1.90;100.00;99797.94;5016916;28;20195;-43
2023/01/19 11:13:14;;;;;;;16.45;13.43;;;;;;;2.13;100.00;99801.94;5017269;28;20196;-45
2023/01/19 11:15:42;;;;;;;14.82;13.32;;;;;;;2.03;100.00;99804.75;5014872;28;20204;-42
2023/01/19 11:18:25;;;;;;;15.10;13.27;;;;;;;2.01;100.00;99803.03;5021499;28;20168;-42
2023/01/19 11:20:54;;;;;;;14.80;13.20;;;;;;;1.94;100.00;99807.56;5017053;28;20218;-45
2023/01/19 11:23:33;;;;;;;14.32;12.73;;;;;;;1.99;100.00;99815.41;5026842;28;20643;-41
2023/01/19 11:26:01;;;;;;;14.00;12.27;;;;;;;1.98;100.00;99816.31;5018566;28;20274;-44
2023/01/19 11:28:41;;;;;;;16.88;13.07;;;;;;;1.99;100.00;99818.94;5017922;28;20203;-43
2023/01/19 11:31:10;;;;;;;15.15;13.55;;;;;;;1.96;100.00;99824.25;5033570;28;20188;-41
2023/01/19 11:33:50;;;;;;;16.58;13.55;;;;;;;1.95;100.00;99821.66;5013238;28;20651;-42
2023/01/19 11:36:24;;;;;;;15.15;13.55;;;;;;;1.90;100.00;99827.00;5019173;28;20208;-44